Terminal Aerodrome Forecast
Issued by NWS Flagstaff, AZ

Home | Current Version | Previous Version | Text Only | Print | Product List | Glossary On
Versions: 1 2 3 4 5 6 7 8 9 10 11 12 13 14 15
000
FTUS45 KFGZ 281546 AAB
TAFINW
TAF AMD
KINW 281546Z 2816/2912 32017G27KT P6SM VCSH SCT030 BKN050
      TEMPO 2816/2819 6SM -SHRA BKN030
     FM281900 33018G27KT P6SM BKN060
     FM290400 28016G25KT P6SM SKC=

USA.gov is the U.S. government's official web portal to all federal, state and local government web resources and services.